Time;durP1;ratioP1;P1;durP2;ratioP2;P2;SDS_P1;SDS_P2;PMS_P1;PMS_P2;Temp;Humidity;BMP_temperature;BMP_pressure;BME280_temperature;BME280_humidity;BME280_pressure;Samples;Min_cycle;Max_cycle;Signal;HPM_P1;HPM_P2
2023/11/10 00:01:01;;;;;;;15.85;3.50;;;10.00;99.90;;;;;;4248550;27;20051;-54
2023/11/10 00:03:05;;;;;;;11.82;3.22;;;10.00;99.90;;;;;;4248422;27;20043;-60
2023/11/10 00:05:09;;;;;;;16.40;3.20;;;10.00;99.90;;;;;;4247814;27;20043;-53
2023/11/10 00:07:12;;;;;;;12.07;3.42;;;10.00;99.90;;;;;;4248498;27;20050;-54
2023/11/10 00:09:14;;;;;;;14.10;3.35;;;10.00;99.90;;;;;;4248418;27;20042;-53
2023/11/10 00:11:17;;;;;;;17.52;3.85;;;10.00;99.90;;;;;;4248556;27;20051;-52
2023/11/10 00:13:19;;;;;;;15.63;3.25;;;9.90;99.90;;;;;;4248898;27;20138;-54
2023/11/10 00:15:24;;;;;;;11.68;3.10;;;10.00;99.90;;;;;;4249193;27;20102;-54
2023/11/10 00:17:26;;;;;;;12.07;3.33;;;10.00;99.90;;;;;;4249202;27;20039;-55
2023/11/10 00:19:30;;;;;;;16.63;3.47;;;10.00;99.90;;;;;;4248079;27;20058;-53
2023/11/10 00:21:35;;;;;;;14.55;3.22;;;10.00;99.90;;;;;;4230045;28;20044;-54
2023/11/10 00:23:37;;;;;;;13.35;3.17;;;9.90;99.90;;;;;;4248064;27;20070;-52
2023/11/10 00:25:39;;;;;;;17.77;4.22;;;9.90;99.90;;;;;;4248166;27;20075;-54
2023/11/10 00:27:42;;;;;;;14.10;3.30;;;9.80;99.90;;;;;;4247406;27;20123;-53
2023/11/10 00:29:45;;;;;;;16.38;3.35;;;9.90;99.90;;;;;;4247913;27;20039;-53
2023/11/10 00:31:47;;;;;;;13.75;3.00;;;9.90;99.90;;;;;;4247754;27;20047;-53
2023/11/10 00:33:52;;;;;;;12.52;3.00;;;9.90;99.90;;;;;;4248132;27;20391;-57
2023/11/10 00:35:56;;;;;;;12.55;3.03;;;9.90;99.90;;;;;;4247913;27;20538;-53
2023/11/10 00:37:58;;;;;;;15.73;3.60;;;9.90;99.90;;;;;;4248754;27;20126;-53
2023/11/10 00:40:01;;;;;;;9.98;2.65;;;9.90;99.90;;;;;;4248573;27;20071;-53
2023/11/10 00:42:04;;;;;;;15.05;3.15;;;9.90;99.90;;;;;;4248098;27;20046;-53
2023/11/10 00:44:06;;;;;;;11.18;2.63;;;9.80;99.90;;;;;;4247721;27;20115;-55
2023/11/10 00:46:08;;;;;;;15.80;2.58;;;9.80;99.90;;;;;;4248089;27;20035;-54
2023/11/10 00:48:11;;;;;;;16.13;2.63;;;9.80;99.90;;;;;;4249395;27;20417;-55
2023/11/10 00:50:13;;;;;;;15.75;3.25;;;9.80;99.90;;;;;;4248601;27;20047;-52
2023/11/10 00:52:17;;;;;;;12.18;2.80;;;9.80;99.90;;;;;;4248068;27;20039;-53
2023/11/10 00:54:19;;;;;;;15.05;3.05;;;9.80;99.90;;;;;;4247732;27;20047;-54
2023/11/10 00:56:21;;;;;;;10.90;2.83;;;9.80;99.90;;;;;;4247651;27;20118;-54
2023/11/10 00:58:23;;;;;;;16.27;3.17;;;9.80;99.90;;;;;;4247627;28;20035;-53
2023/11/10 01:00:26;;;;;;;11.93;2.63;;;9.80;99.90;;;;;;4247520;28;20058;-56
2023/11/10 01:02:28;;;;;;;12.13;2.78;;;9.80;99.90;;;;;;4247500;28;20111;-54
2023/11/10 01:04:31;;;;;;;12.73;2.90;;;9.80;99.90;;;;;;4247247;28;20103;-53
2023/11/10 01:06:33;;;;;;;11.55;2.40;;;9.80;99.90;;;;;;4247617;28;20074;-54
2023/11/10 01:08:37;;;;;;;12.63;2.90;;;9.70;99.90;;;;;;4247685;28;20134;-53
2023/11/10 01:10:39;;;;;;;9.65;2.60;;;9.70;99.90;;;;;;4247743;28;20066;-53
2023/11/10 01:12:42;;;;;;;11.23;2.92;;;9.70;99.90;;;;;;4247599;28;20067;-52
2023/11/10 01:14:44;;;;;;;10.68;2.97;;;9.70;99.90;;;;;;4247346;28;20043;-54
2023/11/10 01:16:46;;;;;;;9.23;2.45;;;9.60;99.90;;;;;;4247683;28;20099;-52
2023/11/10 01:18:48;;;;;;;12.98;2.83;;;9.70;99.90;;;;;;4247431;28;20571;-54
2023/11/10 01:20:50;;;;;;;12.20;2.80;;;9.60;99.90;;;;;;4247700;28;20402;-52
2023/11/10 01:22:52;;;;;;;11.95;2.78;;;9.50;99.90;;;;;;4247423;28;20130;-52
2023/11/10 01:24:56;;;;;;;10.90;2.83;;;9.50;99.90;;;;;;4247436;28;20047;-53
2023/11/10 01:26:59;;;;;;;13.00;2.63;;;9.60;99.90;;;;;;4247392;28;20066;-53
2023/11/10 01:29:01;;;;;;;14.40;2.30;;;9.60;99.90;;;;;;4247647;28;20379;-54
2023/11/10 01:31:04;;;;;;;11.00;3.13;;;9.60;99.90;;;;;;4247326;28;20096;-53
2023/11/10 01:33:07;;;;;;;15.65;2.70;;;9.50;99.90;;;;;;4247264;28;20054;-54
2023/11/10 01:35:10;;;;;;;9.57;2.50;;;9.60;99.90;;;;;;4247424;28;20044;-53
2023/11/10 01:37:12;;;;;;;11.07;2.50;;;9.60;99.90;;;;;;4247556;28;20130;-55
2023/11/10 01:39:14;;;;;;;9.93;2.40;;;9.50;99.90;;;;;;4247652;28;20043;-53
2023/11/10 01:41:20;;;;;;;9.27;2.38;;;9.60;99.90;;;;;;4247330;28;20050;-53
2023/11/10 01:43:23;;;;;;;9.52;2.58;;;9.50;99.90;;;;;;4247431;28;20043;-54
2023/11/10 01:45:25;;;;;;;10.82;2.78;;;9.60;99.90;;;;;;4247527;27;20048;-52
2023/11/10 01:47:27;;;;;;;10.40;2.60;;;9.50;99.90;;;;;;4246852;28;20110;-53
2023/11/10 01:49:30;;;;;;;14.52;2.83;;;9.60;99.90;;;;;;4247408;28;20065;-55
2023/11/10 01:51:32;;;;;;;7.32;2.22;;;9.50;99.90;;;;;;4247267;28;20051;-53
2023/11/10 01:53:34;;;;;;;11.05;2.92;;;9.50;99.90;;;;;;4247471;28;20050;-53
2023/11/10 01:55:37;;;;;;;14.02;2.30;;;9.50;99.90;;;;;;4250245;27;20092;-53
2023/11/10 01:57:43;;;;;;;18.58;3.05;;;9.50;99.90;;;;;;4250461;27;20130;-54
2023/11/10 01:59:46;;;;;;;9.48;2.53;;;9.50;99.90;;;;;;4250590;27;20051;-54
2023/11/10 02:01:49;;;;;;;10.07;2.22;;;9.50;99.90;;;;;;4250846;27;20637;-54
2023/11/10 02:03:51;;;;;;;9.18;2.42;;;9.50;99.90;;;;;;4251050;27;20102;-54
2023/11/10 02:05:53;;;;;;;9.05;2.00;;;9.50;99.90;;;;;;4232476;28;20549;-53
2023/11/10 02:07:56;;;;;;;10.88;2.63;;;9.50;99.90;;;;;;4250365;27;20043;-55
2023/11/10 02:09:59;;;;;;;13.05;2.83;;;9.50;99.90;;;;;;4250867;27;20466;-53
2023/11/10 02:12:01;;;;;;;11.18;2.70;;;9.50;99.90;;;;;;4250387;27;20073;-54
2023/11/10 02:14:06;;;;;;;15.20;3.05;;;9.50;99.90;;;;;;4250694;27;20441;-56
2023/11/10 02:16:09;;;;;;;10.80;2.35;;;9.40;99.90;;;;;;4250063;27;20505;-54
2023/11/10 02:18:11;;;;;;;12.98;2.55;;;9.40;99.90;;;;;;4250044;27;20066;-64
2023/11/10 02:20:13;;;;;;;15.02;3.00;;;9.50;99.90;;;;;;4250222;27;20047;-53
2023/11/10 02:22:15;;;;;;;11.00;2.85;;;9.40;99.90;;;;;;4232047;28;20048;-52
2023/11/10 02:24:20;;;;;;;12.10;2.78;;;9.40;99.90;;;;;;4250212;27;20132;-54
2023/11/10 02:26:24;;;;;;;11.07;2.47;;;9.40;99.90;;;;;;4250380;27;20066;-53
2023/11/10 02:28:26;;;;;;;13.10;2.80;;;9.30;99.90;;;;;;4249993;27;20047;-53
2023/11/10 02:30:28;;;;;;;14.23;2.92;;;9.30;99.90;;;;;;4249958;27;20039;-53
2023/11/10 02:32:30;;;;;;;10.05;2.53;;;9.30;99.90;;;;;;4231772;28;20574;-54
2023/11/10 02:34:33;;;;;;;17.92;3.30;;;9.40;99.90;;;;;;4252196;27;20047;-55
2023/11/10 02:36:37;;;;;;;12.57;3.03;;;9.40;99.90;;;;;;4234294;28;20065;-62
2023/11/10 02:38:41;;;;;;;11.43;2.80;;;9.40;99.90;;;;;;4251585;27;20092;-53
2023/11/10 02:40:44;;;;;;;15.82;3.03;;;9.30;99.90;;;;;;4249843;27;20070;-53
2023/11/10 02:42:47;;;;;;;13.18;2.60;;;9.20;99.90;;;;;;4250454;27;20494;-56
2023/11/10 02:44:49;;;;;;;15.15;2.83;;;9.20;99.90;;;;;;4250289;27;20092;-54
2023/11/10 02:46:52;;;;;;;12.48;2.92;;;9.30;99.90;;;;;;4250192;27;20055;-53
2023/11/10 02:48:54;;;;;;;20.95;2.88;;;9.20;99.90;;;;;;4249737;27;20506;-53
2023/11/10 02:50:56;;;;;;;13.82;2.78;;;9.20;99.90;;;;;;4249672;27;20051;-54
2023/11/10 02:52:58;;;;;;;15.45;2.78;;;9.30;99.90;;;;;;4249555;27;20047;-53
2023/11/10 02:55:01;;;;;;;12.27;2.55;;;9.30;99.90;;;;;;4249569;27;20047;-52
2023/11/10 02:57:04;;;;;;;11.00;2.67;;;9.20;99.90;;;;;;4249766;27;20116;-53
2023/11/10 02:59:08;;;;;;;13.95;2.55;;;9.20;99.90;;;;;;4248979;27;20092;-53
2023/11/10 03:01:10;;;;;;;12.00;2.63;;;9.20;99.90;;;;;;4249313;27;20118;-54
2023/11/10 03:03:14;;;;;;;11.50;2.83;;;9.20;99.90;;;;;;4249295;27;20100;-53
2023/11/10 03:05:17;;;;;;;16.90;3.40;;;9.10;99.90;;;;;;4249550;27;20047;-53
2023/11/10 03:07:19;;;;;;;11.27;2.63;;;9.10;99.90;;;;;;4248773;27;20047;-53
2023/11/10 03:09:23;;;;;;;13.68;2.80;;;9.20;99.90;;;;;;4249617;27;20058;-53
2023/11/10 03:11:25;;;;;;;13.10;3.07;;;9.10;99.90;;;;;;4249501;27;20108;-54
2023/11/10 03:13:29;;;;;;;17.83;3.55;;;9.20;99.90;;;;;;4249049;27;20043;-53
2023/11/10 03:15:32;;;;;;;14.50;3.22;;;9.20;99.90;;;;;;4249098;27;20074;-53
2023/11/10 03:17:34;;;;;;;12.30;2.20;;;9.20;99.90;;;;;;4249110;27;20072;-53
2023/11/10 03:19:37;;;;;;;8.57;2.25;;;9.20;99.90;;;;;;4249316;27;20080;-54
2023/11/10 03:21:39;;;;;;;13.02;2.30;;;9.20;99.90;;;;;;4249456;27;20500;-54
2023/11/10 03:23:41;;;;;;;11.32;2.78;;;9.10;99.90;;;;;;4249580;27;20120;-53
2023/11/10 03:25:43;;;;;;;14.48;2.55;;;9.10;99.90;;;;;;4249498;27;20051;-52
2023/11/10 03:27:45;;;;;;;9.77;2.28;;;9.20;99.90;;;;;;4249431;27;20043;-53
2023/11/10 03:29:48;;;;;;;13.07;2.63;;;9.20;99.90;;;;;;4248800;27;20135;-52
2023/11/10 03:31:51;;;;;;;13.73;2.50;;;9.20;99.90;;;;;;4249141;27;20478;-54
2023/11/10 03:33:53;;;;;;;12.88;2.45;;;9.20;99.90;;;;;;4248802;27;20039;-52
2023/11/10 03:35:55;;;;;;;18.00;2.70;;;9.20;99.90;;;;;;4248932;27;20039;-54
2023/11/10 03:37:57;;;;;;;8.65;2.67;;;9.20;99.90;;;;;;4248701;27;20401;-53
2023/11/10 03:40:01;;;;;;;6.45;2.10;;;9.20;99.90;;;;;;4248678;27;20146;-65
2023/11/10 03:42:04;;;;;;;14.82;2.92;;;9.10;99.90;;;;;;4248986;27;20103;-53
2023/11/10 03:44:06;;;;;;;10.98;2.30;;;9.10;99.90;;;;;;4248910;27;20540;-52
2023/11/10 03:46:08;;;;;;;13.27;2.92;;;9.10;99.90;;;;;;4250003;27;20067;-52
2023/11/10 03:48:12;;;;;;;12.23;2.38;;;9.10;99.90;;;;;;4264886;27;20147;-53
2023/11/10 03:50:16;;;;;;;13.27;3.30;;;9.10;99.90;;;;;;4249018;27;20435;-52
2023/11/10 03:52:18;;;;;;;12.82;2.53;;;9.20;99.90;;;;;;4248526;27;20046;-53
2023/11/10 03:54:22;;;;;;;18.35;3.65;;;9.10;99.90;;;;;;4248590;27;20451;-53
2023/11/10 03:56:24;;;;;;;14.20;2.85;;;9.10;99.90;;;;;;4248457;27;20043;-54
2023/11/10 03:58:26;;;;;;;12.48;2.47;;;9.10;99.90;;;;;;4248587;27;20078;-53
2023/11/10 04:00:28;;;;;;;11.05;2.58;;;9.10;99.90;;;;;;4248539;27;20054;-53
2023/11/10 04:02:49;;;;;;;12.18;2.63;;;9.10;99.90;;;;;;4248313;27;20100;-54
2023/11/10 04:04:52;;;;;;;12.85;2.20;;;9.00;99.90;;;;;;4248577;27;20078;-54
2023/11/10 04:06:54;;;;;;;12.75;2.70;;;9.00;99.90;;;;;;4248529;27;20193;-53
2023/11/10 04:08:56;;;;;;;10.40;2.20;;;9.00;99.90;;;;;;4248395;27;20047;-52
2023/11/10 04:10:58;;;;;;;14.63;3.00;;;9.00;99.90;;;;;;4248397;27;20119;-52
2023/11/10 04:13:00;;;;;;;8.68;2.40;;;9.10;99.90;;;;;;4247921;27;20472;-53
2023/11/10 04:15:03;;;;;;;11.95;2.60;;;9.10;99.90;;;;;;4248693;27;20541;-53
2023/11/10 04:17:06;;;;;;;15.63;3.08;;;9.00;99.90;;;;;;4229516;28;20533;-61
2023/11/10 04:19:09;;;;;;;12.18;2.60;;;9.00;99.90;;;;;;4249378;27;20078;-54
2023/11/10 04:21:12;;;;;;;11.68;2.53;;;9.00;99.90;;;;;;4251833;27;20078;-53
2023/11/10 04:23:15;;;;;;;12.18;2.83;;;9.10;99.90;;;;;;4231143;28;20228;-52
2023/11/10 04:25:17;;;;;;;16.90;2.80;;;9.10;99.90;;;;;;4248555;27;20382;-53
2023/11/10 04:27:20;;;;;;;11.25;2.80;;;9.10;99.90;;;;;;4247932;27;20047;-53
2023/11/10 04:29:22;;;;;;;10.55;2.75;;;9.10;99.90;;;;;;4248156;27;20043;-53
2023/11/10 04:31:24;;;;;;;13.70;3.08;;;9.10;99.90;;;;;;4248266;27;20066;-52
2023/11/10 04:33:26;;;;;;;14.70;3.00;;;9.10;99.90;;;;;;4248166;27;20050;-53
2023/11/10 04:35:28;;;;;;;12.35;2.42;;;9.20;99.90;;;;;;4248022;27;20046;-54
2023/11/10 04:37:32;;;;;;;21.55;3.03;;;9.20;99.90;;;;;;4248004;27;20043;-52
2023/11/10 04:39:35;;;;;;;9.60;2.35;;;9.10;99.90;;;;;;4247934;27;20114;-53
2023/11/10 04:41:39;;;;;;;18.20;2.95;;;9.10;99.90;;;;;;4247879;27;20406;-53
2023/11/10 04:43:41;;;;;;;12.30;2.78;;;9.10;99.90;;;;;;4229852;28;20044;-54
2023/11/10 04:45:43;;;;;;;15.73;3.30;;;9.10;99.90;;;;;;4247935;27;20100;-54
2023/11/10 04:47:48;;;;;;;18.40;3.25;;;9.10;99.90;;;;;;4248303;27;20379;-59
2023/11/10 04:49:50;;;;;;;16.38;3.13;;;9.00;99.90;;;;;;4248226;27;20551;-53
2023/11/10 04:51:52;;;;;;;12.60;2.92;;;9.00;99.90;;;;;;4248107;27;20126;-54
2023/11/10 04:53:56;;;;;;;13.43;2.75;;;9.00;99.90;;;;;;4248115;27;20059;-53
2023/11/10 04:56:00;;;;;;;10.35;3.03;;;9.00;99.90;;;;;;4247629;27;20088;-54
2023/11/10 04:58:02;;;;;;;9.93;2.40;;;9.00;99.90;;;;;;4247914;27;20534;-53
2023/11/10 05:00:08;;;;;;;10.60;2.10;;;9.00;99.90;;;;;;4248978;27;20054;-53
2023/11/10 05:02:11;;;;;;;13.65;2.83;;;9.00;99.90;;;;;;4248543;28;20051;-54
2023/11/10 05:04:13;;;;;;;15.57;2.83;;;9.00;99.90;;;;;;4248367;28;20050;-54
2023/11/10 05:06:16;;;;;;;11.50;2.72;;;9.10;99.90;;;;;;4248672;28;20071;-61
2023/11/10 05:08:19;;;;;;;16.02;3.00;;;9.10;99.90;;;;;;4248261;28;20049;-52
2023/11/10 05:10:22;;;;;;;16.75;3.38;;;9.20;99.90;;;;;;4247544;28;20047;-53
2023/11/10 05:12:24;;;;;;;11.77;2.47;;;9.10;99.90;;;;;;4229192;28;20048;-53
2023/11/10 05:14:27;;;;;;;13.45;2.67;;;9.20;99.90;;;;;;4248028;28;20090;-54
2023/11/10 05:16:29;;;;;;;14.93;3.05;;;9.20;99.90;;;;;;4247606;28;20472;-54
2023/11/10 05:18:32;;;;;;;12.65;2.60;;;9.20;99.90;;;;;;4247833;28;20043;-54
2023/11/10 05:20:36;;;;;;;;;;;9.20;99.90;;;;;;4248132;28;20413;-54
2023/11/10 05:22:43;;;;;;;22.27;3.22;;;9.20;99.90;;;;;;4247910;28;20554;-54
2023/11/10 05:24:45;;;;;;;11.95;2.75;;;9.10;99.90;;;;;;4247572;28;20047;-53
2023/11/10 05:26:49;;;;;;;14.82;2.50;;;9.00;99.90;;;;;;4247732;28;20068;-54
2023/11/10 05:28:51;;;;;;;24.52;3.65;;;9.00;99.90;;;;;;4247501;27;20092;-53
2023/11/10 05:30:53;;;;;;;12.82;3.00;;;9.10;99.90;;;;;;4251626;27;20138;-54
2023/11/10 05:32:56;;;;;;;18.70;2.90;;;9.10;99.90;;;;;;4252340;27;20423;-59
2023/11/10 05:34:58;;;;;;;12.52;2.83;;;9.10;99.90;;;;;;4251364;27;20047;-53
2023/11/10 05:37:01;;;;;;;13.73;2.55;;;9.10;99.90;;;;;;4251071;27;20393;-54
2023/11/10 05:39:04;;;;;;;15.93;3.17;;;9.10;99.90;;;;;;4232366;28;20054;-53
2023/11/10 05:41:06;;;;;;;14.52;2.65;;;9.00;99.90;;;;;;4250922;27;20059;-52
2023/11/10 05:43:11;;;;;;;12.20;2.80;;;9.00;99.90;;;;;;4250824;27;20062;-59
2023/11/10 05:45:14;;;;;;;15.52;2.78;;;9.00;99.90;;;;;;4250477;27;20125;-53
2023/11/10 05:47:16;;;;;;;11.23;2.92;;;9.00;99.90;;;;;;4250608;27;20078;-54
2023/11/10 05:49:18;;;;;;;29.63;3.15;;;9.10;99.90;;;;;;4250869;27;20073;-53
2023/11/10 05:51:20;;;;;;;17.70;3.25;;;9.10;99.90;;;;;;4232989;28;20564;-53
2023/11/10 05:53:23;;;;;;;17.00;3.40;;;9.10;99.90;;;;;;4250728;27;20039;-53
2023/11/10 05:55:25;;;;;;;12.55;2.63;;;9.20;99.90;;;;;;4250712;27;20054;-54
2023/11/10 05:57:27;;;;;;;20.02;3.00;;;9.10;99.90;;;;;;4250596;27;20047;-53
2023/11/10 05:59:31;;;;;;;13.13;3.08;;;9.10;99.90;;;;;;4250353;27;20048;-53
2023/11/10 06:01:34;;;;;;;15.60;3.15;;;9.00;99.90;;;;;;4250588;27;20058;-54
2023/11/10 06:03:37;;;;;;;13.70;2.90;;;9.00;99.90;;;;;;4250337;27;20047;-54
2023/11/10 06:05:39;;;;;;;19.65;3.75;;;9.00;99.90;;;;;;4251229;27;20399;-56
2023/11/10 06:07:45;;;;;;;12.82;3.05;;;9.00;99.90;;;;;;4252335;27;20092;-52
2023/11/10 06:09:46;;;;;;;;;;;9.00;99.90;;;;;;4252219;27;20071;-53
2023/11/10 06:11:52;;;;;;;14.95;3.08;;;9.00;99.90;;;;;;4251161;27;20365;-54
2023/11/10 06:14:00;;;;;;;14.02;2.92;;;9.00;99.90;;;;;;4250621;27;20047;-52
2023/11/10 06:16:07;;;;;;;20.92;3.17;;;9.00;99.90;;;;;;4250217;27;20061;-52
2023/11/10 06:18:09;;;;;;;18.13;3.15;;;9.00;99.90;;;;;;4250187;27;20049;-53
2023/11/10 06:20:12;;;;;;;13.25;3.00;;;9.10;99.90;;;;;;4250000;27;20382;-60
2023/11/10 06:22:14;;;;;;;15.40;3.13;;;9.00;99.90;;;;;;4249988;27;20446;-53
2023/11/10 06:24:16;;;;;;;11.95;2.88;;;9.10;99.90;;;;;;4250193;27;20078;-53
2023/11/10 06:26:19;;;;;;;18.50;2.97;;;9.00;99.90;;;;;;4250010;27;20039;-54
2023/11/10 06:28:22;;;;;;;18.55;3.08;;;9.10;99.90;;;;;;4249972;27;20492;-53
2023/11/10 06:30:24;;;;;;;13.18;2.88;;;9.00;99.90;;;;;;4250035;27;20102;-53
2023/11/10 06:32:27;;;;;;;13.25;2.47;;;9.10;99.90;;;;;;4249972;27;20130;-53
2023/11/10 06:34:29;;;;;;;15.68;3.78;;;9.10;99.90;;;;;;4249929;27;20051;-54
2023/11/10 06:36:32;;;;;;;21.73;4.03;;;9.10;99.90;;;;;;4249370;27;20047;-54
2023/11/10 06:38:34;;;;;;;13.13;2.85;;;9.00;99.90;;;;;;4249701;27;20455;-54
2023/11/10 06:40:36;;;;;;;14.23;2.95;;;9.10;99.90;;;;;;4249193;27;20054;-53
2023/11/10 06:42:38;;;;;;;11.23;3.20;;;9.00;99.90;;;;;;4249389;27;20043;-54
2023/11/10 06:44:41;;;;;;;12.13;2.58;;;9.10;99.90;;;;;;4249951;27;20514;-53
2023/11/10 06:46:44;;;;;;;10.93;2.70;;;9.10;99.90;;;;;;4231504;28;20055;-54
2023/11/10 06:48:48;;;;;;;18.05;3.33;;;9.10;99.90;;;;;;4249540;27;20086;-55
2023/11/10 06:50:50;;;;;;;12.55;2.80;;;9.10;99.90;;;;;;4249581;27;20047;-54
2023/11/10 06:52:52;;;;;;;10.88;3.00;;;9.10;99.90;;;;;;4249798;27;20069;-56
2023/11/10 06:54:54;;;;;;;18.17;2.92;;;9.20;99.90;;;;;;4231233;28;20039;-53
2023/11/10 06:56:58;;;;;;;14.10;3.22;;;9.20;99.90;;;;;;4249617;27;20039;-54
2023/11/10 06:59:00;;;;;;;23.27;3.50;;;9.20;99.90;;;;;;4249403;27;20480;-54
2023/11/10 07:01:05;;;;;;;14.60;2.88;;;9.20;99.90;;;;;;4249493;27;20047;-53
2023/11/10 07:03:12;;;;;;;14.32;2.78;;;9.20;99.90;;;;;;4231193;28;20530;-54
2023/11/10 07:05:16;;;;;;;20.40;3.45;;;9.20;99.90;;;;;;4249641;27;20039;-53
2023/11/10 07:07:18;;;;;;;16.85;3.65;;;9.20;99.90;;;;;;4249189;27;20436;-53
2023/11/10 07:09:21;;;;;;;11.95;2.88;;;9.20;99.90;;;;;;4249199;27;20133;-53
2023/11/10 07:11:23;;;;;;;15.63;3.10;;;9.20;99.90;;;;;;4249348;27;20537;-54
2023/11/10 07:13:26;;;;;;;17.10;3.42;;;9.20;99.90;;;;;;4249464;27;20074;-54
2023/11/10 07:15:28;;;;;;;15.48;2.60;;;9.30;99.90;;;;;;4249597;27;20051;-59
2023/11/10 07:17:31;;;;;;;12.88;2.92;;;9.20;99.90;;;;;;4250891;27;20451;-55
2023/11/10 07:19:33;;;;;;;13.43;3.08;;;9.20;99.90;;;;;;4249582;27;20047;-54
2023/11/10 07:21:38;;;;;;;12.15;3.40;;;9.20;99.90;;;;;;4249007;27;20047;-53
2023/11/10 07:23:40;;;;;;;17.33;3.63;;;9.20;99.90;;;;;;4249162;27;20151;-53
2023/11/10 07:25:42;;;;;;;27.35;4.35;;;9.10;99.90;;;;;;4248613;27;20126;-54
2023/11/10 07:27:44;;;;;;;17.13;3.70;;;9.10;99.90;;;;;;4249208;27;20507;-53
2023/11/10 07:29:47;;;;;;;17.48;3.60;;;9.20;99.90;;;;;;4248820;27;20055;-54
2023/11/10 07:31:49;;;;;;;19.40;3.75;;;9.30;99.90;;;;;;4249046;27;20083;-53
2023/11/10 07:33:51;;;;;;;21.27;3.97;;;9.30;99.90;;;;;;4248972;27;20081;-53
2023/11/10 07:35:53;;;;;;;13.52;2.72;;;9.30;99.90;;;;;;4248398;27;20116;-52
2023/11/10 07:37:56;;;;;;;20.50;3.58;;;9.30;99.90;;;;;;4248724;27;20071;-54
2023/11/10 07:39:58;;;;;;;17.88;3.25;;;9.30;99.90;;;;;;4248744;27;20135;-54
2023/11/10 07:42:02;;;;;;;15.23;3.45;;;9.30;99.90;;;;;;4230598;28;20519;-54
2023/11/10 07:44:05;;;;;;;22.30;3.22;;;9.40;99.90;;;;;;4248970;27;20127;-53
2023/11/10 07:46:07;;;;;;;19.27;3.83;;;9.40;99.90;;;;;;4248644;27;20074;-53
2023/11/10 07:48:09;;;;;;;18.08;3.67;;;9.40;99.90;;;;;;4249029;27;20058;-53
2023/11/10 07:50:13;;;;;;;16.08;3.65;;;9.40;99.90;;;;;;4248609;27;20053;-54
2023/11/10 07:52:17;;;;;;;20.38;4.05;;;9.40;99.90;;;;;;4250596;27;20075;-54
2023/11/10 07:54:20;;;;;;;14.80;3.30;;;9.40;99.90;;;;;;4250409;27;20130;-54
2023/11/10 07:56:23;;;;;;;15.18;3.80;;;9.40;99.90;;;;;;4248673;27;20072;-54
2023/11/10 07:58:26;;;;;;;19.80;4.03;;;9.50;99.90;;;;;;4248537;27;20082;-53
2023/11/10 08:00:28;;;;;;;18.58;3.55;;;9.50;99.90;;;;;;4248773;27;20096;-52
2023/11/10 08:02:30;;;;;;;23.27;3.88;;;9.40;99.90;;;;;;4248414;27;20047;-53
2023/11/10 08:04:36;;;;;;;22.00;3.38;;;9.50;99.90;;;;;;4229728;28;20048;-53
2023/11/10 08:06:38;;;;;;;19.98;3.95;;;9.60;99.90;;;;;;4248341;27;20047;-53
2023/11/10 08:08:45;;;;;;;17.52;3.75;;;9.60;99.90;;;;;;4248123;27;20049;-53
2023/11/10 08:10:49;;;;;;;20.88;4.10;;;9.60;99.90;;;;;;4248495;27;20440;-53
2023/11/10 08:12:53;;;;;;;21.10;4.10;;;9.70;99.90;;;;;;4248444;27;20545;-54
2023/11/10 08:14:55;;;;;;;20.13;4.13;;;9.90;99.90;;;;;;4248397;27;20453;-53
2023/11/10 08:17:03;;;;;;;17.35;3.28;;;10.00;99.90;;;;;;4248355;27;20044;-53
2023/11/10 08:19:06;;;;;;;21.52;4.07;;;10.00;99.90;;;;;;4247861;27;20047;-53
2023/11/10 08:21:16;;;;;;;26.23;4.28;;;10.10;99.90;;;;;;4248048;27;20096;-54
2023/11/10 08:23:18;;;;;;;18.00;3.80;;;10.10;99.90;;;;;;4248378;27;20451;-53
2023/11/10 08:25:21;;;;;;;18.40;3.85;;;10.00;99.90;;;;;;4248548;27;20051;-56
2023/11/10 08:27:24;;;;;;;20.27;3.60;;;10.00;99.90;;;;;;4248173;27;20050;-54
2023/11/10 08:29:26;;;;;;;25.42;4.13;;;10.10;99.90;;;;;;4248263;27;20340;-53
2023/11/10 08:31:28;;;;;;;17.45;3.95;;;10.10;99.90;;;;;;4247937;27;20067;-52
2023/11/10 08:33:31;;;;;;;17.50;3.45;;;10.10;99.90;;;;;;4247565;27;20039;-52
2023/11/10 08:35:33;;;;;;;19.13;3.85;;;10.10;99.90;;;;;;4248073;27;20421;-54
2023/11/10 08:37:35;;;;;;;19.52;3.88;;;10.10;99.90;;;;;;4248040;27;20050;-54
2023/11/10 08:39:37;;;;;;;18.25;3.88;;;10.20;99.90;;;;;;4247909;27;20043;-54
2023/11/10 08:41:39;;;;;;;17.63;4.28;;;10.20;99.90;;;;;;4247604;27;20082;-52
2023/11/10 08:43:43;;;;;;;23.73;3.72;;;10.40;99.90;;;;;;4247884;27;20039;-54
2023/11/10 08:45:45;;;;;;;12.40;3.40;;;10.60;99.90;;;;;;4247914;27;20043;-54
2023/11/10 08:47:47;;;;;;;16.08;3.55;;;10.60;99.90;;;;;;4229159;28;20071;-57
2023/11/10 08:49:50;;;;;;;15.18;3.47;;;10.80;99.90;;;;;;4248016;27;20522;-53
2023/11/10 08:51:52;;;;;;;21.10;3.85;;;10.80;99.90;;;;;;4247807;27;20050;-53
2023/11/10 08:53:59;;;;;;;19.52;3.58;;;10.80;99.90;;;;;;4247911;27;20051;-54
2023/11/10 08:56:01;;;;;;;16.90;3.70;;;10.80;99.90;;;;;;4248018;27;20066;-54
2023/11/10 08:58:03;;;;;;;15.40;3.42;;;10.80;99.90;;;;;;4248842;27;20043;-54
2023/11/10 09:00:09;;;;;;;11.88;2.78;;;10.80;99.90;;;;;;4248407;27;20039;-53
2023/11/10 09:02:11;;;;;;;21.70;3.45;;;10.80;99.90;;;;;;4247875;27;20058;-53
2023/11/10 09:04:15;;;;;;;24.88;4.10;;;10.70;99.90;;;;;;4247785;27;20122;-54
2023/11/10 09:06:26;;;;;;;14.35;3.80;;;10.70;99.90;;;;;;4247441;28;20062;-53
2023/11/10 09:08:28;;;;;;;17.15;3.58;;;10.60;99.90;;;;;;4247535;28;20095;-54
2023/11/10 09:10:30;;;;;;;15.55;4.00;;;10.50;99.90;;;;;;4247613;28;20134;-53
2023/11/10 09:12:35;;;;;;;15.82;3.83;;;10.50;99.90;;;;;;4247460;28;20085;-54
2023/11/10 09:14:37;;;;;;;18.10;4.00;;;10.50;99.90;;;;;;4247369;28;20043;-53
2023/11/10 09:16:43;;;;;;;24.20;3.75;;;10.50;99.90;;;;;;4247261;28;20044;-53
2023/11/10 09:18:45;;;;;;;16.80;3.63;;;10.70;99.90;;;;;;4247629;28;20050;-54
2023/11/10 09:20:47;;;;;;;21.10;4.32;;;10.80;99.90;;;;;;4247855;28;20097;-58
2023/11/10 09:22:50;;;;;;;20.10;4.35;;;10.80;99.90;;;;;;4247773;28;20051;-56
2023/11/10 09:24:52;;;;;;;19.35;3.58;;;10.90;99.90;;;;;;4247500;28;20036;-53
2023/11/10 09:26:55;;;;;;;18.00;3.60;;;11.00;99.90;;;;;;4229373;28;20048;-53
2023/11/10 09:28:58;;;;;;;15.50;3.63;;;11.10;99.90;;;;;;4247777;28;20142;-53
2023/11/10 09:31:00;;;;;;;23.17;4.15;;;11.20;99.90;;;;;;4247526;28;20082;-54
2023/11/10 09:33:04;;;;;;;18.50;4.45;;;11.00;99.90;;;;;;4247370;28;20039;-55
2023/11/10 09:35:06;;;;;;;26.73;4.35;;;11.00;99.90;;;;;;4247471;28;20039;-53
2023/11/10 09:37:09;;;;;;;21.30;3.88;;;10.90;99.90;;;;;;4247798;28;20043;-53
2023/11/10 09:39:14;;;;;;;27.55;4.22;;;11.00;99.90;;;;;;4230382;28;20055;-56
2023/11/10 09:41:25;;;;;;;15.02;3.45;;;11.00;99.90;;;;;;4248802;28;20051;-52
2023/11/10 09:43:30;;;;;;;21.40;3.95;;;11.00;99.90;;;;;;4247476;28;20050;-54
2023/11/10 09:45:35;;;;;;;22.75;4.25;;;11.10;99.90;;;;;;4246969;27;20501;-53
2023/11/10 09:47:38;;;;;;;16.67;3.30;;;11.00;99.90;;;;;;4247493;28;20062;-54
2023/11/10 09:49:42;;;;;;;20.45;4.20;;;11.10;99.90;;;;;;4247297;28;20044;-53
2023/11/10 09:51:48;;;;;;;19.08;3.97;;;11.10;99.90;;;;;;4247329;28;20062;-53
2023/11/10 09:53:52;;;;;;;23.75;4.43;;;11.10;99.90;;;;;;4247272;28;20498;-53
2023/11/10 09:55:55;;;;;;;18.98;3.83;;;11.10;99.90;;;;;;4247377;28;20043;-54
2023/11/10 09:57:57;;;;;;;20.08;3.47;;;11.00;99.90;;;;;;4247331;28;20039;-53
2023/11/10 10:00:00;;;;;;;24.90;4.30;;;11.10;99.90;;;;;;4246945;28;20142;-53
2023/11/10 10:02:03;;;;;;;21.15;4.13;;;11.10;99.90;;;;;;4246841;28;20043;-54
2023/11/10 10:04:07;;;;;;;15.57;4.07;;;11.00;99.90;;;;;;4247224;28;20039;-53
2023/11/10 10:06:12;;;;;;;18.33;3.72;;;11.00;99.90;;;;;;4247015;28;20078;-53
2023/11/10 10:08:17;;;;;;;22.30;4.25;;;11.00;99.90;;;;;;4247269;28;20043;-54
2023/11/10 10:10:22;;;;;;;15.95;3.47;;;11.10;99.90;;;;;;4247260;28;20047;-53
2023/11/10 10:12:25;;;;;;;;;;;11.20;99.90;;;;;;4247808;28;20513;-54
2023/11/10 10:14:28;;;;;;;19.52;4.25;;;11.20;99.90;;;;;;4246761;28;19927;-53
2023/11/10 10:16:30;;;;;;;20.65;3.83;;;11.20;99.90;;;;;;4247809;27;20503;-54
2023/11/10 10:18:33;;;;;;;17.20;3.42;;;11.40;99.90;;;;;;4250246;27;20062;-53
2023/11/10 10:20:35;;;;;;;20.92;4.28;;;11.40;99.90;;;;;;4250230;27;20051;-53
2023/11/10 10:22:44;;;;;;;22.83;4.20;;;11.40;99.90;;;;;;4250657;27;20043;-60
2023/11/10 10:24:47;;;;;;;16.40;3.63;;;11.50;99.90;;;;;;4251109;27;20039;-56
2023/11/10 10:26:51;;;;;;;21.40;4.78;;;11.60;99.90;;;;;;4251114;27;20378;-54
2023/11/10 10:28:55;;;;;;;16.20;4.13;;;11.60;99.90;;;;;;4250504;27;20066;-59
2023/11/10 10:30:58;;;;;;;22.42;4.53;;;11.70;99.90;;;;;;4250378;27;20047;-53
2023/11/10 10:33:00;;;;;;;19.48;4.28;;;11.70;99.90;;;;;;4249858;27;20100;-53
2023/11/10 10:35:03;;;;;;;20.58;4.57;;;11.80;99.90;;;;;;4249818;27;20047;-54
2023/11/10 10:37:05;;;;;;;17.63;4.30;;;11.80;99.90;;;;;;4249634;27;20047;-54
2023/11/10 10:39:12;;;;;;;17.30;4.28;;;11.70;99.90;;;;;;4231960;28;20043;-55